YSWG/WGA METAR and TAF weather

Enter ICAO airport designator
Station Type Date Time Source
YSWG METAR 2020/01/24 09:00 UTC NOAA

YSWG 240900Z AUTO 21009KT 9999 // NCD 24/03 Q1011


Station Type Date Time Source
YSWG Decoded METAR 2020/01/24 09:00 UTC NOAA

Wagga Airport, Australia (YSWG) 35-09S 147-27E 213M
Jan 24, 2020 - 04:00 AM EST / 2020.01.24 0900 UTC
Wind: from the SSW (210 degrees) at 10 MPH (9 KT):0
Visibility: greater than 7 mile(s):0
Temperature: 75 F (24 C)
Dew Point: 37 F (3 C)
Relative Humidity: 25%
Pressure (altimeter): 29.85 in. Hg (1011 hPa)
ob: YSWG 240900Z AUTO 21009KT 9999 // NCD 24/03 Q1011
cycle: 9

Station Type Date Time Source
YSWG TAF 2018/05/25 18:03 UTC NOAA

TAF YSWG 251649Z 2518/2608 07008KT CAVOK

Example: see airport list